Main page
METAR-TAF:

METAR-TAF

Airports :

Sabadell Airport

Sabadell, Spain

latitude: 41-31N, longitude: 002-06E, elevation: 250 m

Current weather observation

The report was made 14 minutes ago, at 23:00 UTC
Wind 2 kt from variable directions
Temperature 8°C
Humidity 93%
Pressure 1021 hPa
Visibility 10 km or more
no clouds below 1500 m and no cumulonimbus

METAR: LELL 272300Z AUTO VRB02KT CAVOK 08/07 Q1021

Time: 00:14 (23:14 UTC)

Forecast

The report was made 9 hours and 14 minutes ago, at 14:00 UTC
Forecast valid from 27 at 15 UTC to 28 at 15 UTC
Wind 4 kt from variable directions
Visibility 10 km or more
Few clouds at a height of 2000 ft
Probability 30% :
Temporary
from 28 at 02 UTC to 28 at 08 UTC
Wind 12 kt from the Northwest

TAF: LELL 271400Z 2715/2815 VRB04KT 9999 FEW020 TX20/2813Z TN08/2806Z PROB30 TEMPO 2802/2808 32012KT

Weather observations and forecasts of more than 4000 airports (METAR and TAF reports).

The available stations are represented by yellow and red dots on the map.

Hover mouse over dot to see the name of the station.

Then click to see weather observations and forecasts.

To change the map : click on the green buttons with a black cross to zoom in, on the green button with a dash to zoom out, or on the green arrows for adjacent maps.


METAR-TAF: